Hardy, Kentucky
Current Conditions -  °F | °C
As of 2:55 AM on Thursday 23 Oct 2014 (Local Time) from KPBX Reporting Station
Overcast Overcast  
Wind Chill: 45°   Ceiling: 2600
Heat Index: 45°   Visibility: 10mi
Dew Point: 41°   Wind: 3mph
Humidity: 85%   Direction: 340°NNW
Pressure: 30.21"   Gusts: NA
Location:  37.62°N, 82.24°W
Report Text: KPBX 230655Z AUTO 34003KT 10SM OVC026 07/05 A3021 RMK AO2 T00720049
Loading
Personal Weather Stations






























Interactive Weather Map
Tropical Storm Tracking
New forecast layout! Learn more

10-Day Weather Forecast

Advertisements
Track Severe Weather on mobile